sensor_id;sensor_type;location;lat;lon;timestamp;temperature;humidity
20594;DHT22;10455;48.732;10.266;2022-09-09T00:00:58;10.30;99.90
20594;DHT22;10455;48.732;10.266;2022-09-09T00:06:07;10.40;99.90
20594;DHT22;10455;48.732;10.266;2022-09-09T00:11:12;10.40;99.90
20594;DHT22;10455;48.732;10.266;2022-09-09T00:16:21;10.60;99.90
20594;DHT22;10455;48.732;10.266;2022-09-09T00:21:30;10.60;99.90
20594;DHT22;10455;48.732;10.266;2022-09-09T00:26:38;10.50;99.90
20594;DHT22;10455;48.732;10.266;2022-09-09T00:31:43;10.60;99.90
20594;DHT22;10455;48.732;10.266;2022-09-09T00:36:45;10.50;99.90
20594;DHT22;10455;48.732;10.266;2022-09-09T00:41:57;10.60;99.90
20594;DHT22;10455;48.732;10.266;2022-09-09T00:47:12;10.50;99.90
20594;DHT22;10455;48.732;10.266;2022-09-09T00:52:27;10.40;99.90
20594;DHT22;10455;48.732;10.266;2022-09-09T00:57:33;10.40;99.90
20594;DHT22;10455;48.732;10.266;2022-09-09T01:02:42;10.30;99.90
20594;DHT22;10455;48.732;10.266;2022-09-09T01:07:50;10.20;99.90
20594;DHT22;10455;48.732;10.266;2022-09-09T01:12:54;10.00;99.90
20594;DHT22;10455;48.732;10.266;2022-09-09T01:18:03;10.00;99.90
20594;DHT22;10455;48.732;10.266;2022-09-09T01:23:20;10.10;99.90
20594;DHT22;10455;48.732;10.266;2022-09-09T01:28:32;10.20;99.90
20594;DHT22;10455;48.732;10.266;2022-09-09T01:33:36;10.20;99.90
20594;DHT22;10455;48.732;10.266;2022-09-09T01:43:42;10.30;99.90
20594;DHT22;10455;48.732;10.266;2022-09-09T01:48:45;10.20;99.90
20594;DHT22;10455;48.732;10.266;2022-09-09T01:53:47;10.20;99.90
20594;DHT22;10455;48.732;10.266;2022-09-09T01:59:07;10.20;99.90
20594;DHT22;10455;48.732;10.266;2022-09-09T02:04:23;10.00;99.90
20594;DHT22;10455;48.732;10.266;2022-09-09T02:09:30;9.90;99.90
20594;DHT22;10455;48.732;10.266;2022-09-09T02:14:37;9.90;99.90
20594;DHT22;10455;48.732;10.266;2022-09-09T02:19:48;9.80;99.90
20594;DHT22;10455;48.732;10.266;2022-09-09T02:24:52;9.70;99.90
20594;DHT22;10455;48.732;10.266;2022-09-09T02:29:59;9.70;99.90
20594;DHT22;10455;48.732;10.266;2022-09-09T02:35:06;9.80;99.90
20594;DHT22;10455;48.732;10.266;2022-09-09T02:40:12;9.50;99.90
20594;DHT22;10455;48.732;10.266;2022-09-09T02:45:19;9.50;99.90
20594;DHT22;10455;48.732;10.266;2022-09-09T02:50:25;9.60;99.90
20594;DHT22;10455;48.732;10.266;2022-09-09T02:55:37;9.80;99.90
20594;DHT22;10455;48.732;10.266;2022-09-09T03:00:42;9.70;99.90
20594;DHT22;10455;48.732;10.266;2022-09-09T03:05:45;9.70;99.90
20594;DHT22;10455;48.732;10.266;2022-09-09T03:10:48;9.60;99.90
20594;DHT22;10455;48.732;10.266;2022-09-09T03:15:51;9.50;99.90
20594;DHT22;10455;48.732;10.266;2022-09-09T03:20:54;9.60;99.90
20594;DHT22;10455;48.732;10.266;2022-09-09T03:31:04;9.60;99.90
20594;DHT22;10455;48.732;10.266;2022-09-09T03:36:11;9.60;99.90
20594;DHT22;10455;48.732;10.266;2022-09-09T03:41:13;9.60;99.90
20594;DHT22;10455;48.732;10.266;2022-09-09T03:46:16;9.70;99.90
20594;DHT22;10455;48.732;10.266;2022-09-09T03:51:19;9.80;99.90
20594;DHT22;10455;48.732;10.266;2022-09-09T03:56:22;9.90;99.90
20594;DHT22;10455;48.732;10.266;2022-09-09T04:01:26;10.10;99.90
20594;DHT22;10455;48.732;10.266;2022-09-09T04:06:28;10.20;99.90
20594;DHT22;10455;48.732;10.266;2022-09-09T04:11:31;10.30;99.90
20594;DHT22;10455;48.732;10.266;2022-09-09T04:16:36;10.30;99.90
20594;DHT22;10455;48.732;10.266;2022-09-09T04:21:39;10.20;99.90
20594;DHT22;10455;48.732;10.266;2022-09-09T04:26:41;10.40;99.90
20594;DHT22;10455;48.732;10.266;2022-09-09T04:31:45;10.60;99.90
20594;DHT22;10455;48.732;10.266;2022-09-09T04:36:47;10.90;99.90
20594;DHT22;10455;48.732;10.266;2022-09-09T04:41:49;11.10;99.90
20594;DHT22;10455;48.732;10.266;2022-09-09T04:46:53;11.30;99.90
20594;DHT22;10455;48.732;10.266;2022-09-09T04:51:55;11.30;99.90
20594;DHT22;10455;48.732;10.266;2022-09-09T04:56:57;11.40;99.90
20594;DHT22;10455;48.732;10.266;2022-09-09T05:02:00;11.60;99.90
20594;DHT22;10455;48.732;10.266;2022-09-09T05:07:03;11.70;99.90
20594;DHT22;10455;48.732;10.266;2022-09-09T05:12:06;11.50;99.90
20594;DHT22;10455;48.732;10.266;2022-09-09T05:17:10;11.90;99.90
20594;DHT22;10455;48.732;10.266;2022-09-09T05:22:12;12.10;99.90
20594;DHT22;10455;48.732;10.266;2022-09-09T05:27:14;11.80;99.90
20594;DHT22;10455;48.732;10.266;2022-09-09T05:32:18;12.00;99.90
20594;DHT22;10455;48.732;10.266;2022-09-09T05:37:20;12.10;99.90
20594;DHT22;10455;48.732;10.266;2022-09-09T05:42:22;12.20;99.90
20594;DHT22;10455;48.732;10.266;2022-09-09T05:47:25;12.30;99.90
20594;DHT22;10455;48.732;10.266;2022-09-09T05:52:28;12.40;99.90
20594;DHT22;10455;48.732;10.266;2022-09-09T05:57:30;12.50;99.90
20594;DHT22;10455;48.732;10.266;2022-09-09T06:02:34;12.50;99.90
20594;DHT22;10455;48.732;10.266;2022-09-09T06:07:38;12.80;99.90
20594;DHT22;10455;48.732;10.266;2022-09-09T06:12:42;13.20;99.90
20594;DHT22;10455;48.732;10.266;2022-09-09T06:17:46;13.40;99.90
20594;DHT22;10455;48.732;10.266;2022-09-09T06:22:50;13.30;99.90
20594;DHT22;10455;48.732;10.266;2022-09-09T06:27:52;13.50;99.90
20594;DHT22;10455;48.732;10.266;2022-09-09T06:32:57;13.80;99.90
20594;DHT22;10455;48.732;10.266;2022-09-09T06:37:59;13.80;99.90
20594;DHT22;10455;48.732;10.266;2022-09-09T06:43:01;13.60;99.90
20594;DHT22;10455;48.732;10.266;2022-09-09T06:48:05;15.40;99.90
20594;DHT22;10455;48.732;10.266;2022-09-09T06:53:07;17.40;99.90
20594;DHT22;10455;48.732;10.266;2022-09-09T06:58:09;19.80;99.90
20594;DHT22;10455;48.732;10.266;2022-09-09T07:03:12;23.20;99.90
20594;DHT22;10455;48.732;10.266;2022-09-09T07:08:14;25.00;99.90
20594;DHT22;10455;48.732;10.266;2022-09-09T07:13:18;28.30;99.90
20594;DHT22;10455;48.732;10.266;2022-09-09T07:18:23;28.10;99.90
20594;DHT22;10455;48.732;10.266;2022-09-09T07:23:25;28.10;99.90
20594;DHT22;10455;48.732;10.266;2022-09-09T07:28:27;25.50;99.90
20594;DHT22;10455;48.732;10.266;2022-09-09T07:33:34;27.40;99.90
20594;DHT22;10455;48.732;10.266;2022-09-09T07:38:40;28.70;99.90
20594;DHT22;10455;48.732;10.266;2022-09-09T07:43:45;29.30;99.90
20594;DHT22;10455;48.732;10.266;2022-09-09T07:48:51;29.30;99.90
20594;DHT22;10455;48.732;10.266;2022-09-09T07:53:55;31.00;97.70
20594;DHT22;10455;48.732;10.266;2022-09-09T07:58:58;32.40;95.50
20594;DHT22;10455;48.732;10.266;2022-09-09T08:04:04;31.00;95.20
20594;DHT22;10455;48.732;10.266;2022-09-09T08:09:08;31.80;94.60
20594;DHT22;10455;48.732;10.266;2022-09-09T08:14:11;32.60;92.50
20594;DHT22;10455;48.732;10.266;2022-09-09T08:19:16;33.00;91.20
20594;DHT22;10455;48.732;10.266;2022-09-09T08:24:18;31.70;92.50
20594;DHT22;10455;48.732;10.266;2022-09-09T08:29:21;31.70;92.20
20594;DHT22;10455;48.732;10.266;2022-09-09T08:34:25;33.00;91.50
20594;DHT22;10455;48.732;10.266;2022-09-09T08:39:28;32.10;91.30
20594;DHT22;10455;48.732;10.266;2022-09-09T08:44:41;32.50;90.90
20594;DHT22;10455;48.732;10.266;2022-09-09T08:50:00;33.20;90.00
20594;DHT22;10455;48.732;10.266;2022-09-09T08:55:20;31.90;91.10
20594;DHT22;10455;48.732;10.266;2022-09-09T09:00:28;33.60;89.50
20594;DHT22;10455;48.732;10.266;2022-09-09T09:05:40;31.30;90.50
20594;DHT22;10455;48.732;10.266;2022-09-09T09:10:48;31.20;91.00
20594;DHT22;10455;48.732;10.266;2022-09-09T09:15:56;31.40;91.70
20594;DHT22;10455;48.732;10.266;2022-09-09T09:21:05;30.90;91.10
20594;DHT22;10455;48.732;10.266;2022-09-09T09:26:11;28.40;94.20
20594;DHT22;10455;48.732;10.266;2022-09-09T09:31:13;26.20;97.90
20594;DHT22;10455;48.732;10.266;2022-09-09T09:36:17;24.90;98.40
20594;DHT22;10455;48.732;10.266;2022-09-09T09:41:29;24.10;99.90
20594;DHT22;10455;48.732;10.266;2022-09-09T09:46:32;26.00;98.20
20594;DHT22;10455;48.732;10.266;2022-09-09T09:51:36;28.10;94.60
20594;DHT22;10455;48.732;10.266;2022-09-09T09:56:38;27.70;95.50
20594;DHT22;10455;48.732;10.266;2022-09-09T10:01:40;29.50;93.80
20594;DHT22;10455;48.732;10.266;2022-09-09T10:06:44;30.60;91.40
20594;DHT22;10455;48.732;10.266;2022-09-09T10:11:54;30.60;92.70
20594;DHT22;10455;48.732;10.266;2022-09-09T10:17:08;29.70;90.60
20594;DHT22;10455;48.732;10.266;2022-09-09T10:22:25;28.70;92.10
20594;DHT22;10455;48.732;10.266;2022-09-09T10:27:34;30.90;89.20
20594;DHT22;10455;48.732;10.266;2022-09-09T10:32:45;31.50;88.10
20594;DHT22;10455;48.732;10.266;2022-09-09T10:38:04;32.60;85.00
20594;DHT22;10455;48.732;10.266;2022-09-09T10:43:21;30.10;89.30
20594;DHT22;10455;48.732;10.266;2022-09-09T10:54:13;27.90;91.40
20594;DHT22;10455;48.732;10.266;2022-09-09T10:59:23;27.90;92.30
20594;DHT22;10455;48.732;10.266;2022-09-09T11:04:31;27.10;92.40
20594;DHT22;10455;48.732;10.266;2022-09-09T11:09:40;27.10;93.70
20594;DHT22;10455;48.732;10.266;2022-09-09T11:14:44;28.30;90.20
20594;DHT22;10455;48.732;10.266;2022-09-09T11:19:47;26.80;90.90
20594;DHT22;10455;48.732;10.266;2022-09-09T11:24:52;24.70;93.20
20594;DHT22;10455;48.732;10.266;2022-09-09T11:30:16;23.50;95.00
20594;DHT22;10455;48.732;10.266;2022-09-09T11:35:33;22.90;96.70
20594;DHT22;10455;48.732;10.266;2022-09-09T11:40:39;23.00;96.90
20594;DHT22;10455;48.732;10.266;2022-09-09T11:45:43;23.00;98.10
20594;DHT22;10455;48.732;10.266;2022-09-09T11:51:00;26.20;95.20
20594;DHT22;10455;48.732;10.266;2022-09-09T11:56:13;29.10;89.70
20594;DHT22;10455;48.732;10.266;2022-09-09T12:01:39;30.20;88.80
20594;DHT22;10455;48.732;10.266;2022-09-09T12:06:45;28.40;87.40
20594;DHT22;10455;48.732;10.266;2022-09-09T12:11:49;27.60;90.10
20594;DHT22;10455;48.732;10.266;2022-09-09T12:16:51;26.90;90.30
20594;DHT22;10455;48.732;10.266;2022-09-09T12:22:00;26.20;92.20
20594;DHT22;10455;48.732;10.266;2022-09-09T12:27:12;25.90;92.10
20594;DHT22;10455;48.732;10.266;2022-09-09T12:32:22;26.60;92.60
20594;DHT22;10455;48.732;10.266;2022-09-09T12:37:29;26.50;90.70
20594;DHT22;10455;48.732;10.266;2022-09-09T12:42:39;25.70;90.10
20594;DHT22;10455;48.732;10.266;2022-09-09T12:47:46;25.60;90.20
20594;DHT22;10455;48.732;10.266;2022-09-09T12:52:50;24.20;87.90
20594;DHT22;10455;48.732;10.266;2022-09-09T12:57:55;22.90;91.30
20594;DHT22;10455;48.732;10.266;2022-09-09T13:02:59;23.40;91.30
20594;DHT22;10455;48.732;10.266;2022-09-09T13:08:03;24.80;84.10
20594;DHT22;10455;48.732;10.266;2022-09-09T13:13:13;23.90;85.90
20594;DHT22;10455;48.732;10.266;2022-09-09T13:18:16;23.20;89.20
20594;DHT22;10455;48.732;10.266;2022-09-09T13:23:22;22.90;89.40
20594;DHT22;10455;48.732;10.266;2022-09-09T13:28:28;22.80;90.20
20594;DHT22;10455;48.732;10.266;2022-09-09T13:33:33;22.80;94.50
20594;DHT22;10455;48.732;10.266;2022-09-09T13:38:39;24.60;94.50
20594;DHT22;10455;48.732;10.266;2022-09-09T13:43:45;26.00;91.70
20594;DHT22;10455;48.732;10.266;2022-09-09T13:48:54;25.50;90.40
20594;DHT22;10455;48.732;10.266;2022-09-09T13:53:57;25.20;90.30
20594;DHT22;10455;48.732;10.266;2022-09-09T13:59:01;24.40;91.60
20594;DHT22;10455;48.732;10.266;2022-09-09T14:04:03;23.70;91.70
20594;DHT22;10455;48.732;10.266;2022-09-09T14:09:09;23.40;91.80
20594;DHT22;10455;48.732;10.266;2022-09-09T14:14:13;23.80;91.70
20594;DHT22;10455;48.732;10.266;2022-09-09T14:19:15;23.80;91.40
20594;DHT22;10455;48.732;10.266;2022-09-09T14:24:18;23.50;91.90
20594;DHT22;10455;48.732;10.266;2022-09-09T14:29:22;23.40;91.90
20594;DHT22;10455;48.732;10.266;2022-09-09T14:34:26;23.90;91.50
20594;DHT22;10455;48.732;10.266;2022-09-09T14:39:28;24.50;90.00
20594;DHT22;10455;48.732;10.266;2022-09-09T14:44:31;25.50;90.00
20594;DHT22;10455;48.732;10.266;2022-09-09T14:49:34;27.40;86.10
20594;DHT22;10455;48.732;10.266;2022-09-09T14:54:36;28.60;81.60
20594;DHT22;10455;48.732;10.266;2022-09-09T14:59:39;29.70;80.90
20594;DHT22;10455;48.732;10.266;2022-09-09T15:04:42;29.40;80.50
20594;DHT22;10455;48.732;10.266;2022-09-09T15:09:45;28.20;81.20
20594;DHT22;10455;48.732;10.266;2022-09-09T15:14:50;27.50;83.40
20594;DHT22;10455;48.732;10.266;2022-09-09T15:19:54;26.40;85.40
20594;DHT22;10455;48.732;10.266;2022-09-09T15:24:56;24.40;90.10
20594;DHT22;10455;48.732;10.266;2022-09-09T15:30:00;26.30;88.20
20594;DHT22;10455;48.732;10.266;2022-09-09T15:35:04;25.70;84.70
20594;DHT22;10455;48.732;10.266;2022-09-09T15:40:07;23.50;90.10
20594;DHT22;10455;48.732;10.266;2022-09-09T15:45:11;22.40;91.80
20594;DHT22;10455;48.732;10.266;2022-09-09T15:50:13;21.60;92.70
20594;DHT22;10455;48.732;10.266;2022-09-09T15:55:15;21.90;93.40
20594;DHT22;10455;48.732;10.266;2022-09-09T16:00:20;22.30;93.20
20594;DHT22;10455;48.732;10.266;2022-09-09T16:05:22;23.20;92.60
20594;DHT22;10455;48.732;10.266;2022-09-09T16:10:24;23.70;90.10
20594;DHT22;10455;48.732;10.266;2022-09-09T16:15:28;23.10;90.50
20594;DHT22;10455;48.732;10.266;2022-09-09T16:20:30;21.90;91.30
20594;DHT22;10455;48.732;10.266;2022-09-09T16:25:32;21.60;91.80
20594;DHT22;10455;48.732;10.266;2022-09-09T16:30:36;21.40;92.20
20594;DHT22;10455;48.732;10.266;2022-09-09T16:35:39;20.80;93.40
20594;DHT22;10455;48.732;10.266;2022-09-09T16:40:41;20.50;94.10
20594;DHT22;10455;48.732;10.266;2022-09-09T16:45:45;20.00;94.80
20594;DHT22;10455;48.732;10.266;2022-09-09T16:50:47;19.50;95.80
20594;DHT22;10455;48.732;10.266;2022-09-09T16:55:49;19.20;96.70
20594;DHT22;10455;48.732;10.266;2022-09-09T17:00:57;18.90;97.50
20594;DHT22;10455;48.732;10.266;2022-09-09T17:06:00;18.60;98.00
20594;DHT22;10455;48.732;10.266;2022-09-09T17:11:03;18.20;98.20
20594;DHT22;10455;48.732;10.266;2022-09-09T17:16:06;18.10;98.90
20594;DHT22;10455;48.732;10.266;2022-09-09T17:21:11;17.90;99.00
20594;DHT22;10455;48.732;10.266;2022-09-09T17:26:17;17.80;99.50
20594;DHT22;10455;48.732;10.266;2022-09-09T17:31:21;17.70;99.90
20594;DHT22;10455;48.732;10.266;2022-09-09T17:36:25;17.60;99.90
20594;DHT22;10455;48.732;10.266;2022-09-09T17:41:29;17.60;99.90
20594;DHT22;10455;48.732;10.266;2022-09-09T17:46:34;17.30;99.90
20594;DHT22;10455;48.732;10.266;2022-09-09T17:51:37;17.10;99.90
20594;DHT22;10455;48.732;10.266;2022-09-09T17:56:42;16.80;99.90
20594;DHT22;10455;48.732;10.266;2022-09-09T18:01:48;16.30;99.90
20594;DHT22;10455;48.732;10.266;2022-09-09T18:06:51;16.00;99.90
20594;DHT22;10455;48.732;10.266;2022-09-09T18:11:56;15.70;99.90
20594;DHT22;10455;48.732;10.266;2022-09-09T18:17:02;15.40;99.90
20594;DHT22;10455;48.732;10.266;2022-09-09T18:22:05;15.60;99.90
20594;DHT22;10455;48.732;10.266;2022-09-09T18:27:07;15.80;99.90
20594;DHT22;10455;48.732;10.266;2022-09-09T18:32:10;15.90;99.90
20594;DHT22;10455;48.732;10.266;2022-09-09T18:37:14;15.90;99.90
20594;DHT22;10455;48.732;10.266;2022-09-09T18:42:16;15.80;99.90
20594;DHT22;10455;48.732;10.266;2022-09-09T18:47:20;15.50;99.90
20594;DHT22;10455;48.732;10.266;2022-09-09T18:52:24;15.40;99.90
20594;DHT22;10455;48.732;10.266;2022-09-09T18:57:27;15.00;99.90
20594;DHT22;10455;48.732;10.266;2022-09-09T19:02:31;14.70;99.90
20594;DHT22;10455;48.732;10.266;2022-09-09T19:07:34;14.60;99.90
20594;DHT22;10455;48.732;10.266;2022-09-09T19:12:36;14.40;99.90
20594;DHT22;10455;48.732;10.266;2022-09-09T19:17:40;14.10;99.90
20594;DHT22;10455;48.732;10.266;2022-09-09T19:22:42;13.70;99.90
20594;DHT22;10455;48.732;10.266;2022-09-09T19:27:44;13.70;99.90
20594;DHT22;10455;48.732;10.266;2022-09-09T19:32:47;13.50;99.90
20594;DHT22;10455;48.732;10.266;2022-09-09T19:37:50;13.30;99.90
20594;DHT22;10455;48.732;10.266;2022-09-09T19:42:52;13.10;99.90
20594;DHT22;10455;48.732;10.266;2022-09-09T19:47:55;13.00;99.90
20594;DHT22;10455;48.732;10.266;2022-09-09T19:52:58;12.90;99.90
20594;DHT22;10455;48.732;10.266;2022-09-09T19:58:00;12.70;99.90
20594;DHT22;10455;48.732;10.266;2022-09-09T20:03:03;12.70;99.90
20594;DHT22;10455;48.732;10.266;2022-09-09T20:08:06;13.10;99.90
20594;DHT22;10455;48.732;10.266;2022-09-09T20:13:08;13.50;99.90
20594;DHT22;10455;48.732;10.266;2022-09-09T20:18:12;13.60;99.90
20594;DHT22;10455;48.732;10.266;2022-09-09T20:23:14;13.40;99.90
20594;DHT22;10455;48.732;10.266;2022-09-09T20:28:18;13.10;99.90
20594;DHT22;10455;48.732;10.266;2022-09-09T20:33:22;12.90;99.90
20594;DHT22;10455;48.732;10.266;2022-09-09T20:38:25;12.80;99.90
20594;DHT22;10455;48.732;10.266;2022-09-09T20:43:27;12.90;99.90
20594;DHT22;10455;48.732;10.266;2022-09-09T20:48:32;13.00;99.90
20594;DHT22;10455;48.732;10.266;2022-09-09T20:53:35;12.80;99.90
20594;DHT22;10455;48.732;10.266;2022-09-09T20:58:37;12.90;99.90
20594;DHT22;10455;48.732;10.266;2022-09-09T21:03:41;13.20;99.90
20594;DHT22;10455;48.732;10.266;2022-09-09T21:08:44;13.40;99.90
20594;DHT22;10455;48.732;10.266;2022-09-09T21:13:46;13.50;99.90
20594;DHT22;10455;48.732;10.266;2022-09-09T21:18:50;13.50;99.90
20594;DHT22;10455;48.732;10.266;2022-09-09T21:23:54;13.50;99.90
20594;DHT22;10455;48.732;10.266;2022-09-09T21:28:56;13.50;99.90
20594;DHT22;10455;48.732;10.266;2022-09-09T21:34:00;13.50;99.90
20594;DHT22;10455;48.732;10.266;2022-09-09T21:39:02;13.40;99.90
20594;DHT22;10455;48.732;10.266;2022-09-09T21:44:04;13.20;99.90
20594;DHT22;10455;48.732;10.266;2022-09-09T21:49:10;13.00;99.90
20594;DHT22;10455;48.732;10.266;2022-09-09T21:54:12;12.70;99.90
20594;DHT22;10455;48.732;10.266;2022-09-09T21:59:14;12.50;99.90
20594;DHT22;10455;48.732;10.266;2022-09-09T22:04:17;12.30;99.90
20594;DHT22;10455;48.732;10.266;2022-09-09T22:09:19;12.20;99.90
20594;DHT22;10455;48.732;10.266;2022-09-09T22:14:21;12.30;99.90
20594;DHT22;10455;48.732;10.266;2022-09-09T22:19:25;12.40;99.90
20594;DHT22;10455;48.732;10.266;2022-09-09T22:24:27;12.50;99.90
20594;DHT22;10455;48.732;10.266;2022-09-09T22:29:29;12.60;99.90
20594;DHT22;10455;48.732;10.266;2022-09-09T22:34:33;12.50;99.90
20594;DHT22;10455;48.732;10.266;2022-09-09T22:39:35;12.60;99.90
20594;DHT22;10455;48.732;10.266;2022-09-09T22:44:37;12.60;99.90
20594;DHT22;10455;48.732;10.266;2022-09-09T22:49:41;12.60;99.90
20594;DHT22;10455;48.732;10.266;2022-09-09T22:54:43;12.60;99.90
20594;DHT22;10455;48.732;10.266;2022-09-09T22:59:46;12.60;99.90
20594;DHT22;10455;48.732;10.266;2022-09-09T23:04:50;12.50;99.90
20594;DHT22;10455;48.732;10.266;2022-09-09T23:09:52;12.40;99.90
20594;DHT22;10455;48.732;10.266;2022-09-09T23:14:54;12.30;99.90
20594;DHT22;10455;48.732;10.266;2022-09-09T23:19:57;12.30;99.90
20594;DHT22;10455;48.732;10.266;2022-09-09T23:24:59;12.30;99.90
20594;DHT22;10455;48.732;10.266;2022-09-09T23:30:03;12.30;99.90
20594;DHT22;10455;48.732;10.266;2022-09-09T23:35:08;12.30;99.90
20594;DHT22;10455;48.732;10.266;2022-09-09T23:40:10;12.40;99.90
20594;DHT22;10455;48.732;10.266;2022-09-09T23:45:12;12.50;99.90
20594;DHT22;10455;48.732;10.266;2022-09-09T23:50:16;12.50;99.90
20594;DHT22;10455;48.732;10.266;2022-09-09T23:55:19;12.70;99.90
